Time;durP1;ratioP1;P1;durP2;ratioP2;P2;SDS_P1;SDS_P2;PMS_P1;PMS_P2;Temp;Humidity;BMP_temperature;BMP_pressure;BME280_temperature;BME280_humidity;BME280_pressure;Samples;Min_cycle;Max_cycle;Signal;HPM_P1;HPM_P2
2021/10/21 00:00:58;;;;;;;7.40;4.53;;;16.90;67.90;;;;;;5113318;27;20415;-79
2021/10/21 00:03:29;;;;;;;5.72;4.15;;;17.00;67.60;;;;;;5112076;28;20023;-78
2021/10/21 00:05:54;;;;;;;6.63;4.65;;;17.00;68.20;;;;;;5112114;28;20027;-78
2021/10/21 00:08:21;;;;;;;7.57;4.97;;;17.00;68.10;;;;;;5111805;28;20028;-78
2021/10/21 00:10:48;;;;;;;7.95;4.93;;;16.90;68.20;;;;;;5112076;28;20031;-78
2021/10/21 00:13:14;;;;;;;11.48;5.40;;;16.80;70.10;;;;;;5112150;28;20052;-78
2021/10/21 00:15:41;;;;;;;7.03;5.07;;;16.70;70.10;;;;;;5113452;28;20069;-78
2021/10/21 00:18:06;;;;;;;7.85;5.38;;;16.70;72.30;;;;;;5113258;28;20059;-78
2021/10/21 00:20:32;;;;;;;6.30;5.43;;;16.50;73.10;;;;;;5113108;28;20060;-78
2021/10/21 00:22:58;;;;;;;8.85;5.90;;;16.40;74.70;;;;;;5113206;28;20020;-78
2021/10/21 00:25:23;;;;;;;8.27;5.38;;;16.30;76.00;;;;;;5113839;28;20035;-78
2021/10/21 00:27:49;;;;;;;7.82;6.05;;;16.20;76.10;;;;;;5116324;28;20106;-78
2021/10/21 00:30:14;;;;;;;8.45;5.43;;;16.10;77.10;;;;;;5117295;28;20028;-77
2021/10/21 00:32:42;;;;;;;7.65;5.97;;;15.90;78.00;;;;;;5116905;28;20044;-77
2021/10/21 00:35:08;;;;;;;8.68;4.93;;;15.80;79.20;;;;;;5117299;28;20049;-78
2021/10/21 00:37:36;;;;;;;8.07;5.88;;;15.70;79.70;;;;;;5115965;28;20020;-79
2021/10/21 00:40:05;;;;;;;7.32;5.55;;;15.70;81.50;;;;;;5115896;28;20038;-78
2021/10/21 00:42:31;;;;;;;7.53;6.00;;;15.50;80.40;;;;;;5115793;28;20044;-79
2021/10/21 00:45:01;;;;;;;8.15;5.45;;;15.40;81.60;;;;;;5117134;28;20493;-79
2021/10/21 00:47:27;;;;;;;6.95;5.72;;;15.40;82.20;;;;;;5117192;28;20015;-78
2021/10/21 00:49:53;;;;;;;8.38;5.80;;;15.40;81.10;;;;;;5117025;28;20027;-78
2021/10/21 00:52:18;;;;;;;7.65;6.13;;;15.40;81.80;;;;;;5116985;28;20094;-78
2021/10/21 00:54:45;;;;;;;7.55;5.68;;;15.30;81.90;;;;;;5098416;28;20475;-78
2021/10/21 00:57:13;;;;;;;8.60;5.57;;;15.30;82.10;;;;;;5116900;28;20031;-79
2021/10/21 00:59:41;;;;;;;7.55;5.05;;;15.30;83.00;;;;;;5129949;28;20036;-78
2021/10/21 01:02:07;;;;;;;7.57;5.00;;;15.30;82.10;;;;;;5132918;28;20051;-78
2021/10/21 01:04:33;;;;;;;7.45;5.40;;;15.30;82.30;;;;;;5118136;28;20369;-79
2021/10/21 01:07:01;;;;;;;9.35;5.35;;;15.40;83.20;;;;;;5116955;28;20027;-79
2021/10/21 01:09:27;;;;;;;6.20;5.07;;;15.30;82.70;;;;;;5097915;28;20043;-78
2021/10/21 01:11:53;;;;;;;5.90;4.85;;;15.30;83.10;;;;;;5116464;28;20054;-78
2021/10/21 01:14:20;;;;;;;7.25;5.28;;;15.30;83.00;;;;;;5116503;28;20107;-78
2021/10/21 01:16:47;;;;;;;8.93;5.93;;;15.30;84.00;;;;;;5116296;28;20027;-80
2021/10/21 01:19:25;;;;;;;8.98;5.40;;;15.20;84.60;;;;;;5115152;28;20080;-79
2021/10/21 01:21:55;;;;;;;9.45;5.47;;;15.10;84.50;;;;;;5116158;28;20035;-78
2021/10/21 01:24:22;;;;;;;7.22;4.85;;;15.10;84.80;;;;;;5116462;28;20521;-82
2021/10/21 01:26:50;;;;;;;8.95;5.82;;;15.10;85.40;;;;;;5116435;28;20027;-79
2021/10/21 01:29:18;;;;;;;13.70;6.88;;;15.10;85.80;;;;;;5114572;28;20138;-82
2021/10/21 01:31:46;;;;;;;10.48;6.47;;;15.00;86.60;;;;;;5114103;28;20040;-79
2021/10/21 01:34:14;;;;;;;7.53;5.88;;;14.90;86.50;;;;;;5116227;28;20538;-79
2021/10/21 01:36:42;;;;;;;9.38;6.32;;;14.90;86.70;;;;;;5115998;28;20042;-81
2021/10/21 01:39:10;;;;;;;10.30;6.20;;;14.90;87.30;;;;;;5116065;28;20487;-81
2021/10/21 01:41:36;;;;;;;8.13;6.43;;;14.80;88.00;;;;;;5114643;28;20028;-79
2021/10/21 01:44:03;;;;;;;8.65;6.07;;;14.80;88.30;;;;;;5114625;28;20030;-81
2021/10/21 01:46:29;;;;;;;11.68;6.63;;;14.60;86.80;;;;;;5115793;28;20031;-80
2021/10/21 01:48:55;;;;;;;9.55;6.75;;;14.60;87.90;;;;;;5115536;28;20023;-80
2021/10/21 01:51:20;;;;;;;9.85;6.75;;;14.50;88.40;;;;;;5114401;28;20036;-79
2021/10/21 01:53:47;;;;;;;10.02;6.47;;;14.40;88.70;;;;;;5097239;28;20055;-82
2021/10/21 01:56:13;;;;;;;8.23;6.47;;;14.30;88.90;;;;;;5114205;28;20059;-80
2021/10/21 01:58:40;;;;;;;9.40;6.57;;;14.30;89.30;;;;;;5115634;28;20034;-80
2021/10/21 02:01:13;;;;;;;8.60;7.00;;;14.20;88.80;;;;;;5115838;28;20058;-81
2021/10/21 02:03:39;;;;;;;8.45;6.25;;;14.20;88.60;;;;;;5115625;28;20040;-78
2021/10/21 02:06:04;;;;;;;9.68;6.25;;;14.40;88.20;;;;;;5114259;28;20080;-78
2021/10/21 02:08:31;;;;;;;7.78;5.63;;;14.40;87.70;;;;;;5115268;28;20032;-78
2021/10/21 02:10:58;;;;;;;7.53;6.30;;;14.50;87.40;;;;;;5115401;28;20020;-78
2021/10/21 02:13:24;;;;;;;5.60;4.72;;;14.50;87.60;;;;;;5115237;28;20035;-79
2021/10/21 02:15:50;;;;;;;5.45;4.90;;;14.50;86.90;;;;;;5114354;28;20024;-79
2021/10/21 02:18:17;;;;;;;6.82;5.05;;;14.70;86.30;;;;;;5115157;28;20024;-79
2021/10/21 02:20:42;;;;;;;6.25;4.93;;;14.80;87.30;;;;;;5115781;28;20095;-79
2021/10/21 02:23:08;;;;;;;6.55;4.70;;;14.90;85.20;;;;;;5097032;28;20027;-80
2021/10/21 02:25:34;;;;;;;5.47;4.32;;;14.90;85.80;;;;;;5113282;28;20035;-82
2021/10/21 02:27:59;;;;;;;5.35;4.03;;;15.10;84.40;;;;;;5113876;28;20024;-82
2021/10/21 02:30:25;;;;;;;4.78;3.90;;;15.20;83.40;;;;;;5114837;28;20038;-81
2021/10/21 02:32:51;;;;;;;5.60;3.58;;;15.30;83.60;;;;;;5114703;28;20071;-82
2021/10/21 02:35:16;;;;;;;5.20;3.45;;;15.40;81.80;;;;;;5113745;28;20066;-82
2021/10/21 02:37:42;;;;;;;4.57;2.88;;;15.50;80.80;;;;;;5113497;28;20114;-82
2021/10/21 02:40:13;;;;;;;4.78;3.50;;;15.60;80.10;;;;;;5113905;28;20050;-82
2021/10/21 02:42:39;;;;;;;3.33;2.92;;;15.60;80.40;;;;;;5097349;28;20031;-82
2021/10/21 02:45:09;;;;;;;13.50;2.70;;;15.50;80.60;;;;;;5113554;28;20023;-79
2021/10/21 02:47:34;;;;;;;3.83;3.10;;;15.60;79.60;;;;;;5114324;28;20024;-78
2021/10/21 02:50:00;;;;;;;4.88;2.65;;;15.50;81.60;;;;;;5114502;28;20077;-80
2021/10/21 02:52:26;;;;;;;4.07;2.60;;;15.40;80.10;;;;;;5114628;28;20027;-81
2021/10/21 02:54:51;;;;;;;5.35;2.55;;;15.50;79.90;;;;;;5113274;28;20038;-78
2021/10/21 02:57:18;;;;;;;3.75;1.88;;;15.50;79.00;;;;;;5114620;28;20536;-78
2021/10/21 02:59:44;;;;;;;3.30;2.15;;;15.60;78.80;;;;;;5114460;28;20034;-79
2021/10/21 03:02:10;;;;;;;2.45;1.90;;;15.50;79.20;;;;;;5112855;28;20016;-79
2021/10/21 03:04:36;;;;;;;2.90;1.88;;;15.50;78.70;;;;;;5113199;28;20103;-77
2021/10/21 03:07:02;;;;;;;3.80;2.33;;;15.50;79.00;;;;;;5096029;28;20543;-78
2021/10/21 03:09:27;;;;;;;2.58;1.73;;;15.40;79.70;;;;;;5095823;28;20539;-78
2021/10/21 03:11:53;;;;;;;2.40;1.55;;;15.30;80.00;;;;;;5112800;28;20023;-78
2021/10/21 03:14:20;;;;;;;1.77;1.50;;;15.30;80.20;;;;;;5114646;28;20112;-79
2021/10/21 03:16:45;;;;;;;2.50;1.80;;;15.10;80.70;;;;;;5112905;28;20513;-78
2021/10/21 03:19:11;;;;;;;3.33;1.55;;;15.00;82.90;;;;;;5113959;28;20027;-77
2021/10/21 03:21:37;;;;;;;5.47;2.13;;;14.80;84.20;;;;;;5113550;28;20020;-79
2021/10/21 03:24:04;;;;;;;1.60;1.27;;;14.60;85.50;;;;;;5112588;28;20499;-79
2021/10/21 03:26:33;;;;;;;3.10;1.02;;;14.50;84.70;;;;;;5113024;28;20543;-77
2021/10/21 03:28:59;;;;;;;1.10;0.90;;;14.40;84.70;;;;;;5112592;28;20032;-78
2021/10/21 03:31:29;;;;;;;3.53;1.27;;;14.30;85.10;;;;;;5112580;28;20084;-78
2021/10/21 03:33:56;;;;;;;1.02;0.70;;;14.20;85.70;;;;;;5112559;28;20496;-79
2021/10/21 03:36:22;;;;;;;1.65;0.77;;;14.00;85.70;;;;;;5095536;28;20383;-78
2021/10/21 03:38:49;;;;;;;1.52;0.50;;;14.00;85.60;;;;;;5113726;28;20028;-79
2021/10/21 03:41:14;;;;;;;0.68;0.25;;;14.00;85.70;;;;;;5113673;28;20052;-79
2021/10/21 03:43:40;;;;;;;0.30;0.30;;;13.90;85.40;;;;;;5095545;28;20051;-78
2021/10/21 03:46:06;;;;;;;2.78;0.30;;;13.90;84.90;;;;;;5113650;28;20080;-79
2021/10/21 03:48:31;;;;;;;2.95;0.30;;;13.90;74.10;;;;;;5113203;28;20031;-76
2021/10/21 03:50:57;;;;;;;1.75;0.50;;;14.10;73.50;;;;;;5113158;27;20506;-78
2021/10/21 03:53:23;;;;;;;2.15;0.40;;;14.10;68.30;;;;;;5113275;28;20510;-78
2021/10/21 03:55:48;;;;;;;3.25;0.60;;;14.10;68.00;;;;;;5111854;28;20508;-79
2021/10/21 03:58:14;;;;;;;1.23;0.40;;;14.10;70.70;;;;;;5113088;28;20035;-78
2021/10/21 04:00:41;;;;;;;0.52;0.50;;;14.00;68.10;;;;;;5111301;28;20392;-79
2021/10/21 04:03:07;;;;;;;1.15;0.57;;;13.90;65.70;;;;;;5113356;28;20018;-79
2021/10/21 04:05:35;;;;;;;1.65;0.50;;;13.80;66.10;;;;;;5113225;28;20024;-79
2021/10/21 04:08:01;;;;;;;3.03;0.47;;;13.60;66.30;;;;;;5113195;28;20023;-78
2021/10/21 04:10:28;;;;;;;1.88;0.55;;;13.50;67.50;;;;;;5111638;28;20080;-80
2021/10/21 04:12:53;;;;;;;1.15;0.75;;;13.30;67.80;;;;;;5113289;28;20024;-80
2021/10/21 04:15:24;;;;;;;0.75;0.38;;;13.30;67.80;;;;;;5112896;28;20484;-79
2021/10/21 04:17:50;;;;;;;3.33;0.90;;;13.20;67.80;;;;;;5113099;28;20019;-78
2021/10/21 04:20:17;;;;;;;0.40;0.22;;;13.20;67.40;;;;;;5113215;28;20023;-79
2021/10/21 04:22:43;;;;;;;1.73;0.40;;;13.20;66.40;;;;;;5095035;28;20380;-79
2021/10/21 04:25:09;;;;;;;3.33;0.30;;;13.20;66.40;;;;;;5113230;28;20023;-78
2021/10/21 04:27:35;;;;;;;4.10;0.70;;;13.10;67.20;;;;;;5111398;28;20375;-80
2021/10/21 04:30:01;;;;;;;3.38;0.90;;;13.00;68.10;;;;;;5111620;28;20488;-80
2021/10/21 04:32:26;;;;;;;0.93;0.40;;;13.00;68.70;;;;;;5112615;28;20115;-78
2021/10/21 04:34:53;;;;;;;1.52;0.70;;;13.00;68.70;;;;;;5113332;27;20031;-79
2021/10/21 04:37:19;;;;;;;1.67;0.40;;;12.90;68.70;;;;;;5116441;28;20023;-79
2021/10/21 04:39:45;;;;;;;3.35;1.00;;;12.90;68.70;;;;;;5117816;28;20104;-79
2021/10/21 04:42:10;;;;;;;2.88;0.95;;;12.90;69.60;;;;;;5114817;28;20479;-79
2021/10/21 04:44:36;;;;;;;2.92;0.52;;;12.80;69.20;;;;;;5113098;28;20035;-79
2021/10/21 04:47:02;;;;;;;3.17;0.95;;;12.80;69.90;;;;;;5113463;28;20028;-79
2021/10/21 04:49:28;;;;;;;5.75;0.70;;;12.80;69.90;;;;;;5095745;28;20514;-79
2021/10/21 04:51:53;;;;;;;2.67;0.80;;;12.80;68.20;;;;;;5111581;28;20032;-78
2021/10/21 04:54:19;;;;;;;5.40;1.13;;;12.70;68.60;;;;;;5112995;28;20502;-78
2021/10/21 04:56:46;;;;;;;4.10;0.95;;;12.70;68.70;;;;;;5111398;28;20379;-78
2021/10/21 04:59:11;;;;;;;8.65;1.40;;;12.60;68.70;;;;;;5111334;28;20023;-79
2021/10/21 05:01:37;;;;;;;7.38;1.23;;;12.60;67.10;;;;;;5112731;28;20023;-79
2021/10/21 05:04:03;;;;;;;6.28;1.33;;;12.60;66.80;;;;;;5111449;28;20016;-79
2021/10/21 05:06:28;;;;;;;7.20;1.15;;;12.50;67.70;;;;;;5112782;28;20083;-78
2021/10/21 05:08:54;;;;;;;10.43;1.30;;;12.50;67.60;;;;;;5112560;28;20055;-79
2021/10/21 05:11:20;;;;;;;5.53;1.00;;;12.50;67.60;;;;;;5114086;28;20038;-78
2021/10/21 05:13:45;;;;;;;9.75;0.98;;;12.40;67.00;;;;;;5116158;28;20491;-79
2021/10/21 05:16:11;;;;;;;5.22;1.35;;;12.40;67.80;;;;;;5114683;28;20444;-78
2021/10/21 05:18:36;;;;;;;8.60;1.40;;;12.40;67.60;;;;;;5114534;28;20361;-79
2021/10/21 05:21:02;;;;;;;8.10;1.63;;;12.40;67.90;;;;;;5114634;28;20032;-79
2021/10/21 05:23:30;;;;;;;7.53;1.02;;;12.40;68.00;;;;;;5114006;28;20015;-78
2021/10/21 05:25:56;;;;;;;5.85;1.55;;;12.30;67.80;;;;;;5113687;28;20452;-78
2021/10/21 05:28:23;;;;;;;6.18;1.27;;;12.30;67.30;;;;;;5096765;28;20039;-77
2021/10/21 05:30:50;;;;;;;5.78;1.52;;;12.30;67.30;;;;;;5114290;28;20027;-78
2021/10/21 05:33:17;;;;;;;5.28;1.50;;;12.30;66.60;;;;;;5114340;28;20036;-78
2021/10/21 05:35:43;;;;;;;6.63;1.08;;;12.30;66.10;;;;;;5113942;28;20115;-78
2021/10/21 05:38:09;;;;;;;7.78;1.77;;;12.30;66.50;;;;;;5114567;28;20054;-79
2021/10/21 05:40:34;;;;;;;8.80;2.10;;;12.20;66.50;;;;;;5115482;28;20084;-78
2021/10/21 05:43:00;;;;;;;9.23;1.50;;;12.10;66.60;;;;;;5114167;28;20511;-79
2021/10/21 05:45:25;;;;;;;12.88;1.33;;;12.20;65.60;;;;;;5115491;28;20023;-79
2021/10/21 05:47:51;;;;;;;11.55;1.83;;;12.20;65.60;;;;;;5114193;28;20023;-79
2021/10/21 05:50:18;;;;;;;5.45;1.30;;;12.20;66.10;;;;;;5115107;28;20039;-78
2021/10/21 05:52:45;;;;;;;8.10;1.45;;;12.10;65.30;;;;;;5115275;28;20049;-78
2021/10/21 05:55:10;;;;;;;8.23;1.42;;;12.10;65.60;;;;;;5114148;28;20032;-78
2021/10/21 05:57:36;;;;;;;10.30;2.13;;;12.10;65.10;;;;;;5115453;28;20490;-78
2021/10/21 06:00:05;;;;;;;11.27;1.80;;;12.10;65.60;;;;;;5115318;28;20548;-77
2021/10/21 06:02:30;;;;;;;11.05;1.60;;;12.10;65.10;;;;;;5115403;28;20019;-78
2021/10/21 06:04:56;;;;;;;11.55;2.13;;;12.10;64.40;;;;;;5113600;28;20458;-80
2021/10/21 06:07:22;;;;;;;9.23;1.23;;;12.00;64.00;;;;;;5114782;28;20033;-77
2021/10/21 06:09:48;;;;;;;9.15;2.03;;;12.10;63.20;;;;;;5113422;28;20507;-77
2021/10/21 06:12:13;;;;;;;12.98;1.83;;;12.00;64.00;;;;;;5113698;28;20019;-78
2021/10/21 06:14:39;;;;;;;12.07;2.13;;;12.10;62.70;;;;;;5114841;28;20476;-77
2021/10/21 06:17:05;;;;;;;9.95;1.50;;;12.10;63.10;;;;;;5115030;28;20016;-77
2021/10/21 06:19:30;;;;;;;10.60;3.25;;;12.10;62.80;;;;;;5115349;28;20094;-77
2021/10/21 06:22:09;;;;;;;14.32;2.13;;;12.10;62.50;;;;;;5114990;28;20085;-77
2021/10/21 06:24:34;;;;;;;9.40;1.80;;;12.10;62.60;;;;;;5115198;28;20024;-77
2021/10/21 06:27:00;;;;;;;16.60;1.92;;;12.20;61.30;;;;;;5116022;28;20024;-77
2021/10/21 06:29:27;;;;;;;10.40;1.83;;;12.20;61.80;;;;;;5118251;28;20431;-77
2021/10/21 06:31:53;;;;;;;10.00;1.83;;;12.20;61.40;;;;;;5115895;28;20388;-78
2021/10/21 06:34:20;;;;;;;7.50;1.42;;;12.20;62.20;;;;;;5114902;28;20019;-78
2021/10/21 06:36:46;;;;;;;5.43;1.75;;;12.20;61.50;;;;;;5114546;28;20027;-78
2021/10/21 06:39:12;;;;;;;14.18;1.65;;;12.30;61.40;;;;;;5114542;28;20089;-78
2021/10/21 06:41:39;;;;;;;11.48;1.40;;;12.20;61.60;;;;;;5114402;28;20476;-77
2021/10/21 06:44:08;;;;;;;10.88;1.40;;;12.20;61.00;;;;;;5113465;28;20031;-77
2021/10/21 06:46:35;;;;;;;7.78;1.40;;;12.30;60.40;;;;;;5114627;28;20068;-78
2021/10/21 06:49:00;;;;;;;13.60;2.13;;;12.30;60.50;;;;;;5114480;28;20110;-78
2021/10/21 06:51:27;;;;;;;13.32;1.90;;;12.30;60.70;;;;;;5114417;28;20024;-79
2021/10/21 06:53:52;;;;;;;12.82;2.30;;;12.30;61.10;;;;;;5114508;27;20032;-79
2021/10/21 06:56:19;;;;;;;7.55;1.75;;;12.30;61.30;;;;;;5114717;28;20054;-80
2021/10/21 06:58:44;;;;;;;9.20;1.48;;;12.30;60.60;;;;;;5113808;28;20027;-78
2021/10/21 07:01:12;;;;;;;13.55;2.30;;;12.30;59.90;;;;;;5114060;28;20028;-78
2021/10/21 07:03:40;;;;;;;8.50;1.95;;;12.30;60.60;;;;;;5112108;28;20122;-77
2021/10/21 07:06:06;;;;;;;12.20;1.73;;;12.30;60.90;;;;;;5114081;28;20062;-77
2021/10/21 07:08:33;;;;;;;11.10;1.88;;;12.30;60.50;;;;;;5114082;28;20088;-78
2021/10/21 07:11:03;;;;;;;10.85;1.83;;;12.30;60.40;;;;;;5114135;28;20036;-78
2021/10/21 07:13:29;;;;;;;14.10;1.58;;;12.40;60.20;;;;;;5112914;28;20387;-78
2021/10/21 07:15:54;;;;;;;7.95;1.50;;;12.30;61.40;;;;;;5112917;28;20028;-79
2021/10/21 07:18:20;;;;;;;10.02;1.60;;;12.30;60.20;;;;;;5114645;28;20055;-79
2021/10/21 07:20:47;;;;;;;8.63;1.38;;;12.40;60.00;;;;;;5114779;28;20072;-79
2021/10/21 07:23:14;;;;;;;10.25;1.58;;;12.40;60.30;;;;;;5113667;28;20111;-79
2021/10/21 07:25:40;;;;;;;8.88;1.48;;;12.40;60.80;;;;;;5113466;28;20033;-78
2021/10/21 07:28:22;;;;;;;8.07;1.35;;;12.30;60.70;;;;;;5112568;28;20024;-79
2021/10/21 07:30:52;;;;;;;8.90;1.55;;;12.30;61.30;;;;;;5113151;28;20054;-78
2021/10/21 07:33:18;;;;;;;11.05;2.03;;;12.30;61.50;;;;;;5112678;28;20042;-77
2021/10/21 07:35:45;;;;;;;9.80;1.30;;;12.40;61.80;;;;;;5114228;28;20026;-76
2021/10/21 07:38:12;;;;;;;9.55;1.55;;;12.40;62.20;;;;;;5114291;28;20023;-76
2021/10/21 07:40:38;;;;;;;6.78;1.30;;;12.30;62.90;;;;;;5095767;28;20423;-77
2021/10/21 07:43:04;;;;;;;8.13;1.70;;;12.30;62.90;;;;;;5114106;28;20023;-77
2021/10/21 07:45:33;;;;;;;13.18;1.40;;;12.30;62.50;;;;;;5114136;28;20019;-77
2021/10/21 07:47:59;;;;;;;12.25;1.63;;;12.20;62.20;;;;;;5095183;28;20131;-77
2021/10/21 07:50:24;;;;;;;7.15;1.50;;;12.30;63.00;;;;;;5112620;28;20119;-77
2021/10/21 07:52:50;;;;;;;8.10;1.70;;;12.20;63.00;;;;;;5113594;28;20023;-77
2021/10/21 07:55:20;;;;;;;4.35;1.02;;;12.10;63.00;;;;;;5112422;28;20024;-78
2021/10/21 07:57:46;;;;;;;6.38;1.02;;;12.20;62.30;;;;;;5113873;28;20119;-77
2021/10/21 08:00:12;;;;;;;7.50;1.17;;;12.20;62.20;;;;;;5113763;28;20333;-78
2021/10/21 08:02:42;;;;;;;10.70;1.55;;;12.20;61.10;;;;;;5113479;28;20487;-81
2021/10/21 08:05:48;;;;;;;9.00;1.33;;;12.40;60.40;;;;;;5114212;28;20038;-85
2021/10/21 08:12:53;;;;;;;6.45;1.40;;;12.80;60.20;;;;;;5044602;28;20056;-84
2021/10/21 08:16:31;;;;;;;6.93;1.23;;;13.00;59.10;;;;;;4946529;29;20047;-85
2021/10/21 08:20:11;;;;;;;4.63;0.73;;;12.90;59.40;;;;;;4949926;28;20053;-84
2021/10/21 08:23:38;;;;;;;5.05;0.90;;;12.70;58.30;;;;;;4960094;28;20035;-85
2021/10/21 08:26:24;;;;;;;5.03;0.80;;;12.90;58.60;;;;;;4968682;28;20023;-84
2021/10/21 08:29:36;;;;;;;4.70;1.00;;;12.80;58.00;;;;;;4961321;28;20373;-84
2021/10/21 08:32:27;;;;;;;7.03;1.00;;;12.80;56.30;;;;;;4970587;28;20054;-81
2021/10/21 08:35:15;;;;;;;9.40;1.20;;;12.90;55.40;;;;;;4971518;28;20047;-81
2021/10/21 08:37:42;;;;;;;5.95;0.90;;;13.00;55.10;;;;;;4940159;28;20031;-82
2021/10/21 08:40:34;;;;;;;3.92;0.60;;;13.00;54.90;;;;;;4999657;28;20112;-82
2021/10/21 08:43:07;;;;;;;5.00;0.90;;;13.10;55.80;;;;;;4993619;28;20070;-78
2021/10/21 08:45:34;;;;;;;6.85;0.93;;;13.00;56.10;;;;;;5022451;28;20037;-78
2021/10/21 08:48:04;;;;;;;3.75;0.82;;;12.80;56.00;;;;;;5075945;28;20086;-78
2021/10/21 08:50:34;;;;;;;2.88;0.77;;;12.70;55.40;;;;;;5059200;28;20051;-77
2021/10/21 08:53:04;;;;;;;6.07;1.20;;;12.80;56.10;;;;;;5060394;28;20496;-77
2021/10/21 08:55:30;;;;;;;3.30;0.52;;;12.80;56.80;;;;;;5093910;28;20574;-77
2021/10/21 08:57:59;;;;;;;7.35;2.13;;;12.90;57.00;;;;;;5110373;28;20024;-77
2021/10/21 09:00:25;;;;;;;4.43;1.02;;;13.10;56.40;;;;;;5094006;28;20496;-77
2021/10/21 09:02:54;;;;;;;8.30;1.50;;;13.00;56.60;;;;;;5076677;28;20035;-76
2021/10/21 09:05:31;;;;;;;4.57;0.88;;;13.10;56.80;;;;;;5076737;28;20436;-77
2021/10/21 09:08:11;;;;;;;4.80;0.98;;;13.00;57.00;;;;;;5093488;28;20035;-76
2021/10/21 09:10:46;;;;;;;3.05;0.80;;;12.90;57.10;;;;;;5093661;28;20032;-77
2021/10/21 09:13:39;;;;;;;4.80;1.02;;;12.80;57.00;;;;;;5093782;28;20026;-77
2021/10/21 09:16:09;;;;;;;7.30;1.20;;;12.70;58.00;;;;;;5094262;28;20027;-77
2021/10/21 09:18:44;;;;;;;10.65;1.10;;;12.80;58.20;;;;;;5119893;28;20023;-77
2021/10/21 09:21:33;;;;;;;6.43;1.00;;;12.80;57.70;;;;;;5114790;28;20024;-77
2021/10/21 09:24:22;;;;;;;3.78;0.73;;;12.80;57.70;;;;;;5115812;28;20063;-76
2021/10/21 09:27:09;;;;;;;4.88;0.88;;;12.90;58.40;;;;;;5114951;28;20161;-76
2021/10/21 09:29:37;;;;;;;4.15;0.63;;;12.80;56.80;;;;;;5114576;28;20027;-77
2021/10/21 09:32:08;;;;;;;6.22;0.95;;;12.70;57.10;;;;;;5114705;28;20399;-78
2021/10/21 09:34:59;;;;;;;6.70;1.33;;;12.70;57.50;;;;;;5116140;28;20035;-75
2021/10/21 09:37:29;;;;;;;4.53;0.82;;;12.70;57.00;;;;;;5114424;28;20388;-77
2021/10/21 09:40:07;;;;;;;6.93;1.23;;;12.50;57.20;;;;;;5115228;28;20110;-78
2021/10/21 09:42:38;;;;;;;2.72;0.85;;;12.50;58.00;;;;;;5131123;27;20027;-77
2021/10/21 09:45:21;;;;;;;3.17;0.77;;;12.50;57.60;;;;;;5115757;28;20064;-76
2021/10/21 09:47:50;;;;;;;3.03;0.70;;;12.60;56.80;;;;;;5115798;28;20024;-76
2021/10/21 09:50:24;;;;;;;3.40;0.75;;;12.70;56.40;;;;;;5131487;27;20040;-76
2021/10/21 09:53:21;;;;;;;4.13;0.88;;;12.70;56.80;;;;;;5115615;28;20375;-77
2021/10/21 09:56:01;;;;;;;7.47;0.82;;;12.90;55.40;;;;;;5113847;28;20031;-75
2021/10/21 09:58:28;;;;;;;2.70;1.00;;;12.90;54.40;;;;;;5112962;28;20066;-76
2021/10/21 10:01:12;;;;;;;2.10;0.63;;;12.90;55.90;;;;;;5113567;28;20455;-75
2021/10/21 10:03:42;;;;;;;3.55;0.80;;;13.00;55.90;;;;;;5115069;28;20403;-76
2021/10/21 10:06:14;;;;;;;2.75;0.60;;;13.40;52.40;;;;;;5131028;27;20380;-75
2021/10/21 10:08:40;;;;;;;4.03;0.98;;;13.20;52.00;;;;;;5115384;28;20365;-75
2021/10/21 10:11:11;;;;;;;3.40;0.82;;;12.90;53.40;;;;;;5113189;28;20030;-77
2021/10/21 10:13:39;;;;;;;4.60;0.90;;;12.80;54.60;;;;;;5113675;28;20111;-76
2021/10/21 10:16:07;;;;;;;1.15;0.60;;;12.70;54.70;;;;;;5114723;28;20102;-76
2021/10/21 10:18:42;;;;;;;2.95;0.60;;;12.70;54.30;;;;;;5113648;28;20024;-76
2021/10/21 10:21:12;;;;;;;8.30;1.42;;;12.70;54.80;;;;;;5114927;28;20331;-76
2021/10/21 10:23:51;;;;;;;2.45;1.10;;;12.70;56.60;;;;;;5115112;28;20039;-76
2021/10/21 10:26:47;;;;;;;2.05;0.60;;;12.20;63.60;;;;;;5114966;28;20411;-75
2021/10/21 10:29:16;;;;;;;4.75;0.60;;;11.90;69.80;;;;;;5114807;28;20028;-76
2021/10/21 10:31:43;;;;;;;4.20;1.15;;;11.70;70.70;;;;;;5113594;28;20040;-78
2021/10/21 10:34:29;;;;;;;0.43;0.22;;;11.70;72.20;;;;;;5115661;28;20506;-76
2021/10/21 10:36:55;;;;;;;4.90;0.65;;;11.50;71.60;;;;;;5118270;28;20076;-77
2021/10/21 10:39:48;;;;;;;2.08;0.50;;;11.40;73.00;;;;;;5116893;28;20085;-76
2021/10/21 10:42:15;;;;;;;2.05;0.80;;;11.40;72.50;;;;;;5114952;28;20376;-76
2021/10/21 10:44:50;;;;;;;2.10;0.38;;;11.60;72.20;;;;;;5114481;28;20019;-76
2021/10/21 10:47:36;;;;;;;3.90;0.77;;;12.20;70.40;;;;;;5113376;28;20039;-77
2021/10/21 10:50:03;;;;;;;1.33;0.60;;;12.60;68.10;;;;;;5113970;27;20154;-76
2021/10/21 10:52:45;;;;;;;5.57;1.15;;;13.10;65.30;;;;;;5130743;27;20032;-76
2021/10/21 10:55:17;;;;;;;5.97;1.17;;;13.30;65.10;;;;;;5112503;28;20026;-76
2021/10/21 10:57:42;;;;;;;3.00;0.90;;;13.70;63.10;;;;;;5129836;27;20601;-77
2021/10/21 11:00:37;;;;;;;2.38;0.70;;;14.00;61.60;;;;;;5113921;28;20061;-77
2021/10/21 11:03:05;;;;;;;2.20;0.60;;;14.20;61.50;;;;;;5096739;27;20070;-78
2021/10/21 11:05:52;;;;;;;1.52;0.43;;;14.50;59.00;;;;;;5113198;28;20020;-77
2021/10/21 11:08:19;;;;;;;4.88;0.90;;;14.70;57.80;;;;;;5114634;28;20020;-76
2021/10/21 11:11:04;;;;;;;2.88;1.00;;;14.70;58.80;;;;;;5112970;28;20031;-76
2021/10/21 11:13:33;;;;;;;2.58;0.70;;;14.90;57.90;;;;;;5115080;28;20409;-76
2021/10/21 11:15:58;;;;;;;4.00;1.65;;;15.20;55.40;;;;;;5134747;28;20080;-77
2021/10/21 11:18:47;;;;;;;6.97;1.20;;;15.50;53.90;;;;;;5131658;28;20028;-76
2021/10/21 11:21:50;;;;;;;5.35;1.15;;;15.70;53.20;;;;;;5114318;28;20106;-76
2021/10/21 11:24:45;;;;;;;6.45;1.10;;;15.90;51.60;;;;;;5114052;28;20020;-77
2021/10/21 11:27:16;;;;;;;4.35;1.10;;;15.80;51.40;;;;;;5114004;28;20027;-77
2021/10/21 11:29:47;;;;;;;2.00;0.70;;;15.20;54.10;;;;;;5113775;28;20507;-77
2021/10/21 11:32:13;;;;;;;3.08;0.60;;;15.30;54.70;;;;;;5114013;28;20167;-77
2021/10/21 11:34:40;;;;;;;2.58;0.77;;;15.70;54.10;;;;;;5113003;28;20023;-77
2021/10/21 11:37:06;;;;;;;6.50;1.25;;;15.50;53.50;;;;;;5094984;28;20059;-76
2021/10/21 11:39:58;;;;;;;2.15;0.93;;;15.30;53.30;;;;;;5113140;28;20042;-76
2021/10/21 11:43:05;;;;;;;2.63;0.60;;;15.20;53.20;;;;;;5113357;28;20099;-75
2021/10/21 11:45:35;;;;;;;4.15;1.00;;;15.20;54.10;;;;;;5112004;28;20110;-76
2021/10/21 11:48:06;;;;;;;3.30;1.15;;;15.30;52.40;;;;;;5113205;28;20020;-76
2021/10/21 11:50:46;;;;;;;3.95;0.88;;;15.40;51.90;;;;;;5113412;28;20035;-76
2021/10/21 11:53:15;;;;;;;3.33;0.70;;;14.80;49.10;;;;;;5113044;28;20630;-76
2021/10/21 11:55:46;;;;;;;4.50;0.63;;;14.40;50.00;;;;;;5113023;28;20046;-77
2021/10/21 11:58:19;;;;;;;5.57;0.93;;;14.00;48.20;;;;;;5113496;28;20012;-76
2021/10/21 12:00:49;;;;;;;3.28;0.70;;;13.90;48.30;;;;;;5113584;28;20104;-77
2021/10/21 12:03:18;;;;;;;3.17;0.70;;;14.00;46.70;;;;;;5113611;28;20028;-77
2021/10/21 12:05:45;;;;;;;5.38;1.05;;;13.80;45.80;;;;;;5101208;28;20028;-77
2021/10/21 12:08:13;;;;;;;2.60;1.08;;;13.80;46.30;;;;;;5107044;28;20038;-77
2021/10/21 12:10:41;;;;;;;4.25;0.52;;;13.70;46.80;;;;;;5133100;27;20028;-76
2021/10/21 12:13:08;;;;;;;2.95;0.40;;;14.20;45.90;;;;;;5121258;28;20015;-75
2021/10/21 12:15:39;;;;;;;3.03;0.70;;;14.70;44.60;;;;;;5114760;28;20027;-77
2021/10/21 12:18:10;;;;;;;4.55;0.80;;;14.80;44.20;;;;;;5113569;28;20145;-77
2021/10/21 12:20:44;;;;;;;4.28;0.73;;;15.20;43.60;;;;;;5113877;27;20317;-78
2021/10/21 12:23:12;;;;;;;3.38;0.60;;;15.50;42.60;;;;;;5116986;28;20133;-77
2021/10/21 12:25:38;;;;;;;4.15;0.77;;;15.70;41.40;;;;;;5116852;28;20118;-77
2021/10/21 12:28:06;;;;;;;2.60;0.90;;;16.00;40.60;;;;;;5116048;28;20092;-76
2021/10/21 12:30:38;;;;;;;2.78;0.70;;;16.20;39.90;;;;;;5117882;28;20040;-76
2021/10/21 12:33:09;;;;;;;6.45;0.80;;;16.40;38.40;;;;;;5116785;28;20132;-77
2021/10/21 12:35:35;;;;;;;5.15;0.77;;;16.20;38.70;;;;;;5115600;28;20098;-77
2021/10/21 12:38:16;;;;;;;2.65;0.70;;;16.20;38.60;;;;;;5115992;28;20016;-77
2021/10/21 12:40:43;;;;;;;2.65;0.70;;;16.20;38.80;;;;;;5117217;28;20106;-78
2021/10/21 12:43:16;;;;;;;2.78;0.68;;;16.40;39.70;;;;;;5117061;28;20052;-78
2021/10/21 12:45:43;;;;;;;3.92;0.98;;;16.40;37.20;;;;;;5116960;28;20472;-77
2021/10/21 12:48:25;;;;;;;3.78;1.08;;;16.20;38.00;;;;;;5116108;28;20364;-77
2021/10/21 12:50:53;;;;;;;3.20;0.88;;;16.10;36.90;;;;;;5117016;28;20037;-78
2021/10/21 12:53:22;;;;;;;3.90;0.60;;;15.70;37.30;;;;;;5116939;28;20098;-77
2021/10/21 12:55:51;;;;;;;5.65;1.50;;;15.60;38.40;;;;;;5116971;28;20053;-78
2021/10/21 12:58:23;;;;;;;8.18;1.10;;;15.80;38.40;;;;;;5115553;28;20024;-77
2021/10/21 13:00:58;;;;;;;2.25;0.70;;;16.30;37.30;;;;;;5116804;27;20024;-78
2021/10/21 13:03:24;;;;;;;7.15;1.42;;;16.40;36.00;;;;;;5115276;28;20042;-77
2021/10/21 13:05:55;;;;;;;5.72;1.13;;;16.40;36.50;;;;;;5116760;28;20030;-78